sensor_id;sensor_type;location;lat;lon;timestamp;temperature;humidity
1337;DHT22;662;48.814;9.318;2023-03-03T00:01:30;6.20;54.50
1337;DHT22;662;48.814;9.318;2023-03-03T00:03:57;6.20;54.60
1337;DHT22;662;48.814;9.318;2023-03-03T00:06:23;6.20;54.60
1337;DHT22;662;48.814;9.318;2023-03-03T00:08:50;6.20;54.60
1337;DHT22;662;48.814;9.318;2023-03-03T00:11:16;6.10;54.60
1337;DHT22;662;48.814;9.318;2023-03-03T00:13:46;6.10;54.60
1337;DHT22;662;48.814;9.318;2023-03-03T00:16:38;6.10;54.70
1337;DHT22;662;48.814;9.318;2023-03-03T00:19:16;6.10;54.70
1337;DHT22;662;48.814;9.318;2023-03-03T00:21:48;6.10;54.70
1337;DHT22;662;48.814;9.318;2023-03-03T00:24:36;6.00;54.60
1337;DHT22;662;48.814;9.318;2023-03-03T00:29:54;6.00;54.70
1337;DHT22;662;48.814;9.318;2023-03-03T00:32:37;5.90;54.70
1337;DHT22;662;48.814;9.318;2023-03-03T00:35:27;5.90;54.70
1337;DHT22;662;48.814;9.318;2023-03-03T00:37:59;5.90;54.70
1337;DHT22;662;48.814;9.318;2023-03-03T00:40:38;5.90;54.70
1337;DHT22;662;48.814;9.318;2023-03-03T00:43:23;5.90;54.80
1337;DHT22;662;48.814;9.318;2023-03-03T00:45:54;5.80;54.70
1337;DHT22;662;48.814;9.318;2023-03-03T00:48:27;5.80;54.80
1337;DHT22;662;48.814;9.318;2023-03-03T00:50:55;5.70;54.70
1337;DHT22;662;48.814;9.318;2023-03-03T00:53:23;5.70;54.80
1337;DHT22;662;48.814;9.318;2023-03-03T00:55:51;5.70;54.80
1337;DHT22;662;48.814;9.318;2023-03-03T00:58:17;5.70;54.90
1337;DHT22;662;48.814;9.318;2023-03-03T01:00:49;5.60;54.80
1337;DHT22;662;48.814;9.318;2023-03-03T01:03:20;5.60;54.90
1337;DHT22;662;48.814;9.318;2023-03-03T01:05:47;5.60;54.90
1337;DHT22;662;48.814;9.318;2023-03-03T01:08:14;5.60;55.00
1337;DHT22;662;48.814;9.318;2023-03-03T01:10:56;5.60;55.10
1337;DHT22;662;48.814;9.318;2023-03-03T01:13:27;5.50;55.10
1337;DHT22;662;48.814;9.318;2023-03-03T01:15:54;5.50;55.10
1337;DHT22;662;48.814;9.318;2023-03-03T01:18:20;5.50;55.20
1337;DHT22;662;48.814;9.318;2023-03-03T01:20:46;5.50;55.20
1337;DHT22;662;48.814;9.318;2023-03-03T01:23:12;5.40;55.10
1337;DHT22;662;48.814;9.318;2023-03-03T01:25:38;5.40;55.20
1337;DHT22;662;48.814;9.318;2023-03-03T01:28:04;5.40;55.20
1337;DHT22;662;48.814;9.318;2023-03-03T01:30:30;5.40;55.30
1337;DHT22;662;48.814;9.318;2023-03-03T01:32:55;5.40;55.30
1337;DHT22;662;48.814;9.318;2023-03-03T01:35:21;5.40;55.30
1337;DHT22;662;48.814;9.318;2023-03-03T01:37:47;5.30;55.30
1337;DHT22;662;48.814;9.318;2023-03-03T01:40:22;5.30;55.40
1337;DHT22;662;48.814;9.318;2023-03-03T01:42:48;5.30;55.40
1337;DHT22;662;48.814;9.318;2023-03-03T01:47:59;5.30;55.50
1337;DHT22;662;48.814;9.318;2023-03-03T01:53:06;5.20;55.50
1337;DHT22;662;48.814;9.318;2023-03-03T01:55:36;5.20;55.50
1337;DHT22;662;48.814;9.318;2023-03-03T02:00:54;5.10;55.60
1337;DHT22;662;48.814;9.318;2023-03-03T02:03:22;5.10;55.60
1337;DHT22;662;48.814;9.318;2023-03-03T02:05:49;5.10;55.70
1337;DHT22;662;48.814;9.318;2023-03-03T02:08:19;5.10;55.70
1337;DHT22;662;48.814;9.318;2023-03-03T02:10:47;5.00;55.70
1337;DHT22;662;48.814;9.318;2023-03-03T02:13:13;5.00;55.70
1337;DHT22;662;48.814;9.318;2023-03-03T02:15:39;5.00;55.70
1337;DHT22;662;48.814;9.318;2023-03-03T02:18:14;5.00;55.70
1337;DHT22;662;48.814;9.318;2023-03-03T02:20:57;5.00;55.80
1337;DHT22;662;48.814;9.318;2023-03-03T02:26:24;4.90;55.80
1337;DHT22;662;48.814;9.318;2023-03-03T02:28:50;4.90;55.80
1337;DHT22;662;48.814;9.318;2023-03-03T02:31:19;4.90;55.90
1337;DHT22;662;48.814;9.318;2023-03-03T02:33:48;4.80;55.90
1337;DHT22;662;48.814;9.318;2023-03-03T02:36:19;4.80;55.90
1337;DHT22;662;48.814;9.318;2023-03-03T02:39:08;4.80;55.90
1337;DHT22;662;48.814;9.318;2023-03-03T02:42:20;4.80;56.10
1337;DHT22;662;48.814;9.318;2023-03-03T02:44:49;4.70;56.00
1337;DHT22;662;48.814;9.318;2023-03-03T02:47:14;4.70;56.00
1337;DHT22;662;48.814;9.318;2023-03-03T02:49:40;4.70;56.10
1337;DHT22;662;48.814;9.318;2023-03-03T02:52:09;4.70;56.20
1337;DHT22;662;48.814;9.318;2023-03-03T02:54:36;4.60;56.20
1337;DHT22;662;48.814;9.318;2023-03-03T02:57:03;4.70;56.40
1337;DHT22;662;48.814;9.318;2023-03-03T02:59:29;4.70;56.50
1337;DHT22;662;48.814;9.318;2023-03-03T03:01:55;4.70;56.50
1337;DHT22;662;48.814;9.318;2023-03-03T03:04:23;4.60;56.60
1337;DHT22;662;48.814;9.318;2023-03-03T03:06:49;4.70;56.80
1337;DHT22;662;48.814;9.318;2023-03-03T03:09:16;4.70;56.80
1337;DHT22;662;48.814;9.318;2023-03-03T03:11:42;4.70;56.70
1337;DHT22;662;48.814;9.318;2023-03-03T03:14:09;4.70;56.70
1337;DHT22;662;48.814;9.318;2023-03-03T03:16:38;4.70;56.70
1337;DHT22;662;48.814;9.318;2023-03-03T03:19:04;4.70;56.70
1337;DHT22;662;48.814;9.318;2023-03-03T03:21:31;4.70;56.80
1337;DHT22;662;48.814;9.318;2023-03-03T03:23:57;4.70;56.80
1337;DHT22;662;48.814;9.318;2023-03-03T03:26:23;4.80;56.90
1337;DHT22;662;48.814;9.318;2023-03-03T03:28:49;4.80;56.90
1337;DHT22;662;48.814;9.318;2023-03-03T03:31:16;4.80;56.80
1337;DHT22;662;48.814;9.318;2023-03-03T03:33:42;4.80;56.80
1337;DHT22;662;48.814;9.318;2023-03-03T03:36:08;4.80;56.90
1337;DHT22;662;48.814;9.318;2023-03-03T03:38:35;4.80;56.90
1337;DHT22;662;48.814;9.318;2023-03-03T03:41:03;4.80;56.80
1337;DHT22;662;48.814;9.318;2023-03-03T03:43:29;4.80;56.80
1337;DHT22;662;48.814;9.318;2023-03-03T03:45:55;4.80;56.80
1337;DHT22;662;48.814;9.318;2023-03-03T03:48:20;4.80;56.80
1337;DHT22;662;48.814;9.318;2023-03-03T03:50:49;4.80;56.90
1337;DHT22;662;48.814;9.318;2023-03-03T03:53:16;4.80;56.90
1337;DHT22;662;48.814;9.318;2023-03-03T03:55:42;4.80;56.90
1337;DHT22;662;48.814;9.318;2023-03-03T03:58:09;4.80;57.00
1337;DHT22;662;48.814;9.318;2023-03-03T04:00:39;4.80;57.00
1337;DHT22;662;48.814;9.318;2023-03-03T04:03:05;4.80;57.10
1337;DHT22;662;48.814;9.318;2023-03-03T04:05:31;4.80;57.20
1337;DHT22;662;48.814;9.318;2023-03-03T04:07:56;4.70;57.20
1337;DHT22;662;48.814;9.318;2023-03-03T04:10:22;4.80;57.20
1337;DHT22;662;48.814;9.318;2023-03-03T04:12:48;4.70;57.10
1337;DHT22;662;48.814;9.318;2023-03-03T04:15:13;4.80;57.20
1337;DHT22;662;48.814;9.318;2023-03-03T04:17:41;4.70;57.10
1337;DHT22;662;48.814;9.318;2023-03-03T04:20:09;4.70;57.20
1337;DHT22;662;48.814;9.318;2023-03-03T04:22:35;4.70;57.30
1337;DHT22;662;48.814;9.318;2023-03-03T04:25:05;4.70;57.30
1337;DHT22;662;48.814;9.318;2023-03-03T04:27:32;4.70;57.40
1337;DHT22;662;48.814;9.318;2023-03-03T04:29:57;4.70;57.40
1337;DHT22;662;48.814;9.318;2023-03-03T04:32:23;4.70;57.50
1337;DHT22;662;48.814;9.318;2023-03-03T04:34:49;4.70;57.50
1337;DHT22;662;48.814;9.318;2023-03-03T04:37:15;4.70;57.70
1337;DHT22;662;48.814;9.318;2023-03-03T04:39:40;4.70;57.60
1337;DHT22;662;48.814;9.318;2023-03-03T04:42:06;4.70;57.70
1337;DHT22;662;48.814;9.318;2023-03-03T04:44:32;4.80;57.70
1337;DHT22;662;48.814;9.318;2023-03-03T04:46:57;4.80;58.30
1337;DHT22;662;48.814;9.318;2023-03-03T04:49:23;4.80;57.80
1337;DHT22;662;48.814;9.318;2023-03-03T04:51:49;4.80;57.90
1337;DHT22;662;48.814;9.318;2023-03-03T04:54:14;4.80;57.90
1337;DHT22;662;48.814;9.318;2023-03-03T04:56:40;4.80;58.10
1337;DHT22;662;48.814;9.318;2023-03-03T04:59:05;4.80;58.10
1337;DHT22;662;48.814;9.318;2023-03-03T05:01:31;4.80;58.20
1337;DHT22;662;48.814;9.318;2023-03-03T05:03:57;4.70;58.10
1337;DHT22;662;48.814;9.318;2023-03-03T05:06:22;4.70;58.10
1337;DHT22;662;48.814;9.318;2023-03-03T05:08:48;4.70;58.10
1337;DHT22;662;48.814;9.318;2023-03-03T05:11:14;4.70;58.20
1337;DHT22;662;48.814;9.318;2023-03-03T05:13:40;4.70;58.30
1337;DHT22;662;48.814;9.318;2023-03-03T05:16:06;4.70;58.30
1337;DHT22;662;48.814;9.318;2023-03-03T05:18:32;4.70;58.40
1337;DHT22;662;48.814;9.318;2023-03-03T05:20:58;4.70;58.30
1337;DHT22;662;48.814;9.318;2023-03-03T05:23:24;4.70;58.40
1337;DHT22;662;48.814;9.318;2023-03-03T05:25:50;4.70;58.50
1337;DHT22;662;48.814;9.318;2023-03-03T05:28:16;4.70;58.50
1337;DHT22;662;48.814;9.318;2023-03-03T05:30:42;4.70;58.50
1337;DHT22;662;48.814;9.318;2023-03-03T05:33:09;4.70;58.50
1337;DHT22;662;48.814;9.318;2023-03-03T05:35:37;4.80;58.50
1337;DHT22;662;48.814;9.318;2023-03-03T05:38:02;4.80;58.40
1337;DHT22;662;48.814;9.318;2023-03-03T05:40:28;4.80;58.40
1337;DHT22;662;48.814;9.318;2023-03-03T05:42:54;4.80;58.40
1337;DHT22;662;48.814;9.318;2023-03-03T05:45:20;4.80;58.50
1337;DHT22;662;48.814;9.318;2023-03-03T05:47:49;4.80;58.60
1337;DHT22;662;48.814;9.318;2023-03-03T05:50:15;4.90;58.70
1337;DHT22;662;48.814;9.318;2023-03-03T05:52:41;4.80;58.60
1337;DHT22;662;48.814;9.318;2023-03-03T05:55:07;4.80;58.70
1337;DHT22;662;48.814;9.318;2023-03-03T05:57:33;4.80;58.70
1337;DHT22;662;48.814;9.318;2023-03-03T06:00:03;4.90;58.90
1337;DHT22;662;48.814;9.318;2023-03-03T06:02:30;4.80;58.80
1337;DHT22;662;48.814;9.318;2023-03-03T06:04:56;4.80;58.90
1337;DHT22;662;48.814;9.318;2023-03-03T06:07:21;4.90;59.10
1337;DHT22;662;48.814;9.318;2023-03-03T06:09:47;4.90;59.10
1337;DHT22;662;48.814;9.318;2023-03-03T06:12:13;4.90;59.10
1337;DHT22;662;48.814;9.318;2023-03-03T06:14:38;4.90;59.10
1337;DHT22;662;48.814;9.318;2023-03-03T06:17:04;4.90;59.20
1337;DHT22;662;48.814;9.318;2023-03-03T06:19:30;4.90;59.30
1337;DHT22;662;48.814;9.318;2023-03-03T06:21:56;4.90;59.30
1337;DHT22;662;48.814;9.318;2023-03-03T06:24:21;4.90;59.40
1337;DHT22;662;48.814;9.318;2023-03-03T06:26:50;4.90;59.30
1337;DHT22;662;48.814;9.318;2023-03-03T06:29:16;4.90;59.90
1337;DHT22;662;48.814;9.318;2023-03-03T06:31:42;4.90;59.40
1337;DHT22;662;48.814;9.318;2023-03-03T06:34:09;5.00;59.40
1337;DHT22;662;48.814;9.318;2023-03-03T06:36:34;5.00;59.40
1337;DHT22;662;48.814;9.318;2023-03-03T06:39:00;5.00;59.40
1337;DHT22;662;48.814;9.318;2023-03-03T06:41:26;5.00;59.40
1337;DHT22;662;48.814;9.318;2023-03-03T06:43:53;5.10;59.40
1337;DHT22;662;48.814;9.318;2023-03-03T06:46:18;5.10;59.40
1337;DHT22;662;48.814;9.318;2023-03-03T06:48:44;5.10;59.40
1337;DHT22;662;48.814;9.318;2023-03-03T06:51:23;5.10;59.30
1337;DHT22;662;48.814;9.318;2023-03-03T06:53:54;5.20;59.40
1337;DHT22;662;48.814;9.318;2023-03-03T06:56:22;5.20;59.30
1337;DHT22;662;48.814;9.318;2023-03-03T06:58:48;5.20;59.30
1337;DHT22;662;48.814;9.318;2023-03-03T07:01:16;5.30;59.40
1337;DHT22;662;48.814;9.318;2023-03-03T07:03:42;5.30;59.40
1337;DHT22;662;48.814;9.318;2023-03-03T07:06:23;5.30;59.30
1337;DHT22;662;48.814;9.318;2023-03-03T07:08:50;5.30;59.20
1337;DHT22;662;48.814;9.318;2023-03-03T07:11:19;5.40;59.30
1337;DHT22;662;48.814;9.318;2023-03-03T07:13:50;5.40;59.20
1337;DHT22;662;48.814;9.318;2023-03-03T07:16:18;5.40;59.10
1337;DHT22;662;48.814;9.318;2023-03-03T07:23:47;5.50;59.00
1337;DHT22;662;48.814;9.318;2023-03-03T07:26:19;5.60;59.10
1337;DHT22;662;48.814;9.318;2023-03-03T07:28:53;5.60;58.90
1337;DHT22;662;48.814;9.318;2023-03-03T07:31:38;5.70;58.90
1337;DHT22;662;48.814;9.318;2023-03-03T07:34:15;5.80;58.90
1337;DHT22;662;48.814;9.318;2023-03-03T07:36:44;5.80;58.70
1337;DHT22;662;48.814;9.318;2023-03-03T07:39:34;5.80;58.50
1337;DHT22;662;48.814;9.318;2023-03-03T07:44:54;5.90;58.30
1337;DHT22;662;48.814;9.318;2023-03-03T07:49:49;6.00;58.00
1337;DHT22;662;48.814;9.318;2023-03-03T07:54:55;6.20;57.90
1337;DHT22;662;48.814;9.318;2023-03-03T07:57:36;6.30;57.70
1337;DHT22;662;48.814;9.318;2023-03-03T08:10:48;6.90;56.70
1337;DHT22;662;48.814;9.318;2023-03-03T08:13:19;7.00;56.30
1337;DHT22;662;48.814;9.318;2023-03-03T08:15:48;7.10;55.90
1337;DHT22;662;48.814;9.318;2023-03-03T08:20:50;7.30;55.30
1337;DHT22;662;48.814;9.318;2023-03-03T08:23:17;7.40;55.00
1337;DHT22;662;48.814;9.318;2023-03-03T08:25:44;7.40;54.70
1337;DHT22;662;48.814;9.318;2023-03-03T08:28:10;7.50;54.40
1337;DHT22;662;48.814;9.318;2023-03-03T08:30:37;7.50;54.20
1337;DHT22;662;48.814;9.318;2023-03-03T08:33:03;7.60;54.20
1337;DHT22;662;48.814;9.318;2023-03-03T08:35:28;7.70;54.10
1337;DHT22;662;48.814;9.318;2023-03-03T08:37:54;7.90;54.30
1337;DHT22;662;48.814;9.318;2023-03-03T08:40:20;8.20;54.40
1337;DHT22;662;48.814;9.318;2023-03-03T08:42:45;8.90;54.20
1337;DHT22;662;48.814;9.318;2023-03-03T08:45:11;10.30;51.60
1337;DHT22;662;48.814;9.318;2023-03-03T08:47:37;11.80;49.50
1337;DHT22;662;48.814;9.318;2023-03-03T08:50:04;13.10;47.00
1337;DHT22;662;48.814;9.318;2023-03-03T08:52:29;14.10;44.70
1337;DHT22;662;48.814;9.318;2023-03-03T08:54:55;14.90;42.80
1337;DHT22;662;48.814;9.318;2023-03-03T08:57:21;15.40;41.30
1337;DHT22;662;48.814;9.318;2023-03-03T08:59:46;15.90;40.10
1337;DHT22;662;48.814;9.318;2023-03-03T09:02:12;16.00;39.00
1337;DHT22;662;48.814;9.318;2023-03-03T09:04:38;15.90;38.10
1337;DHT22;662;48.814;9.318;2023-03-03T09:07:04;15.40;38.00
1337;DHT22;662;48.814;9.318;2023-03-03T09:09:29;14.80;37.90
1337;DHT22;662;48.814;9.318;2023-03-03T09:12:17;14.30;38.40
1337;DHT22;662;48.814;9.318;2023-03-03T09:14:43;13.90;38.80
1337;DHT22;662;48.814;9.318;2023-03-03T09:19:54;13.30;40.00
1337;DHT22;662;48.814;9.318;2023-03-03T09:22:23;13.60;40.20
1337;DHT22;662;48.814;9.318;2023-03-03T09:24:53;13.90;40.00
1337;DHT22;662;48.814;9.318;2023-03-03T09:29:51;14.40;39.60
1337;DHT22;662;48.814;9.318;2023-03-03T09:32:40;14.70;39.70
1337;DHT22;662;48.814;9.318;2023-03-03T09:37:56;14.40;39.00
1337;DHT22;662;48.814;9.318;2023-03-03T09:48:54;13.50;40.30
1337;DHT22;662;48.814;9.318;2023-03-03T09:51:50;13.20;40.60
1337;DHT22;662;48.814;9.318;2023-03-03T09:57:13;12.80;41.20
1337;DHT22;662;48.814;9.318;2023-03-03T10:05:33;12.80;41.60
1337;DHT22;662;48.814;9.318;2023-03-03T10:08:24;13.00;42.30
1337;DHT22;662;48.814;9.318;2023-03-03T10:19:01;12.80;42.00
1337;DHT22;662;48.814;9.318;2023-03-03T10:21:35;12.70;42.20
1337;DHT22;662;48.814;9.318;2023-03-03T10:24:29;12.70;42.60
1337;DHT22;662;48.814;9.318;2023-03-03T10:40:58;12.30;43.50
1337;DHT22;662;48.814;9.318;2023-03-03T10:46:43;12.30;43.90
1337;DHT22;662;48.814;9.318;2023-03-03T10:49:38;12.30;44.10
1337;DHT22;662;48.814;9.318;2023-03-03T10:52:35;12.30;44.10
1337;DHT22;662;48.814;9.318;2023-03-03T11:11:56;12.40;43.70
1337;DHT22;662;48.814;9.318;2023-03-03T11:14:34;12.50;43.60
1337;DHT22;662;48.814;9.318;2023-03-03T11:20:00;12.40;43.30
1337;DHT22;662;48.814;9.318;2023-03-03T11:22:56;12.40;43.00
1337;DHT22;662;48.814;9.318;2023-03-03T11:33:21;12.10;43.60
1337;DHT22;662;48.814;9.318;2023-03-03T11:36:09;12.10;43.40
1337;DHT22;662;48.814;9.318;2023-03-03T11:38:51;12.00;43.50
1337;DHT22;662;48.814;9.318;2023-03-03T11:44:21;11.90;44.00
1337;DHT22;662;48.814;9.318;2023-03-03T11:46:52;11.90;44.10
1337;DHT22;662;48.814;9.318;2023-03-03T11:55:26;13.10;44.40
1337;DHT22;662;48.814;9.318;2023-03-03T12:03:39;14.80;40.50
1337;DHT22;662;48.814;9.318;2023-03-03T12:06:39;15.20;39.80
1337;DHT22;662;48.814;9.318;2023-03-03T12:12:31;16.00;38.90
1337;DHT22;662;48.814;9.318;2023-03-03T12:20:19;17.40;36.70
1337;DHT22;662;48.814;9.318;2023-03-03T12:25:46;18.20;35.70
1337;DHT22;662;48.814;9.318;2023-03-03T12:28:28;18.60;34.60
1337;DHT22;662;48.814;9.318;2023-03-03T12:31:27;18.90;34.00
1337;DHT22;662;48.814;9.318;2023-03-03T12:47:38;20.70;30.80
1337;DHT22;662;48.814;9.318;2023-03-03T12:53:29;21.10;30.60
1337;DHT22;662;48.814;9.318;2023-03-03T12:56:03;21.00;30.00
1337;DHT22;662;48.814;9.318;2023-03-03T13:01:06;20.80;30.00
1337;DHT22;662;48.814;9.318;2023-03-03T13:03:44;20.90;30.20
1337;DHT22;662;48.814;9.318;2023-03-03T13:06:30;21.00;29.80
1337;DHT22;662;48.814;9.318;2023-03-03T13:09:18;21.20;29.60
1337;DHT22;662;48.814;9.318;2023-03-03T13:19:36;21.80;29.00
1337;DHT22;662;48.814;9.318;2023-03-03T13:22:15;21.90;29.00
1337;DHT22;662;48.814;9.318;2023-03-03T13:27:50;22.00;28.80
1337;DHT22;662;48.814;9.318;2023-03-03T13:30:22;22.00;28.70
1337;DHT22;662;48.814;9.318;2023-03-03T13:32:56;22.10;28.50
1337;DHT22;662;48.814;9.318;2023-03-03T13:35:39;22.20;28.40
1337;DHT22;662;48.814;9.318;2023-03-03T13:38:21;22.30;28.50
1337;DHT22;662;48.814;9.318;2023-03-03T13:41:13;22.40;28.60
1337;DHT22;662;48.814;9.318;2023-03-03T13:46:53;22.50;28.20
1337;DHT22;662;48.814;9.318;2023-03-03T13:52:24;22.50;27.80
1337;DHT22;662;48.814;9.318;2023-03-03T13:55:16;22.50;28.20
1337;DHT22;662;48.814;9.318;2023-03-03T14:01:21;22.60;28.10
1337;DHT22;662;48.814;9.318;2023-03-03T14:04:02;22.50;27.90
1337;DHT22;662;48.814;9.318;2023-03-03T14:06:30;22.60;27.90
1337;DHT22;662;48.814;9.318;2023-03-03T14:09:10;22.70;28.00
1337;DHT22;662;48.814;9.318;2023-03-03T14:20:33;22.80;27.50
1337;DHT22;662;48.814;9.318;2023-03-03T14:23:13;22.70;27.70
1337;DHT22;662;48.814;9.318;2023-03-03T14:26:05;22.80;27.80
1337;DHT22;662;48.814;9.318;2023-03-03T14:28:40;22.80;27.70
1337;DHT22;662;48.814;9.318;2023-03-03T14:34:00;22.90;27.90
1337;DHT22;662;48.814;9.318;2023-03-03T14:36:45;22.80;27.60
1337;DHT22;662;48.814;9.318;2023-03-03T14:39:38;22.60;27.50
1337;DHT22;662;48.814;9.318;2023-03-03T14:42:39;22.40;27.80
1337;DHT22;662;48.814;9.318;2023-03-03T14:45:28;22.20;27.80
1337;DHT22;662;48.814;9.318;2023-03-03T14:47:55;21.90;28.30
1337;DHT22;662;48.814;9.318;2023-03-03T14:50:51;21.70;28.40
1337;DHT22;662;48.814;9.318;2023-03-03T14:55:46;21.10;28.60
1337;DHT22;662;48.814;9.318;2023-03-03T14:58:37;20.70;28.70
1337;DHT22;662;48.814;9.318;2023-03-03T15:01:33;20.20;28.70
1337;DHT22;662;48.814;9.318;2023-03-03T15:11:59;18.30;30.70
1337;DHT22;662;48.814;9.318;2023-03-03T15:14:41;18.00;31.30
1337;DHT22;662;48.814;9.318;2023-03-03T15:26:28;16.70;33.20
1337;DHT22;662;48.814;9.318;2023-03-03T15:34:42;16.00;34.50
1337;DHT22;662;48.814;9.318;2023-03-03T15:42:51;15.40;35.30
1337;DHT22;662;48.814;9.318;2023-03-03T15:48:21;14.90;35.90
1337;DHT22;662;48.814;9.318;2023-03-03T15:54:29;14.60;36.80
1337;DHT22;662;48.814;9.318;2023-03-03T15:57:28;14.30;37.20
1337;DHT22;662;48.814;9.318;2023-03-03T16:05:34;13.90;38.20
1337;DHT22;662;48.814;9.318;2023-03-03T16:08:10;13.70;38.50
1337;DHT22;662;48.814;9.318;2023-03-03T16:13:22;13.40;38.90
1337;DHT22;662;48.814;9.318;2023-03-03T16:16:14;13.30;39.10
1337;DHT22;662;48.814;9.318;2023-03-03T16:32:26;12.80;40.40
1337;DHT22;662;48.814;9.318;2023-03-03T16:35:12;12.70;40.50
1337;DHT22;662;48.814;9.318;2023-03-03T16:38:08;12.60;40.70
1337;DHT22;662;48.814;9.318;2023-03-03T16:41:08;12.50;40.70
1337;DHT22;662;48.814;9.318;2023-03-03T16:46:44;12.40;41.30
1337;DHT22;662;48.814;9.318;2023-03-03T16:52:06;12.20;41.60
1337;DHT22;662;48.814;9.318;2023-03-03T16:54:49;12.20;41.90
1337;DHT22;662;48.814;9.318;2023-03-03T16:57:47;12.10;42.00
1337;DHT22;662;48.814;9.318;2023-03-03T17:00:25;12.00;42.10
1337;DHT22;662;48.814;9.318;2023-03-03T17:03:02;11.90;42.20
1337;DHT22;662;48.814;9.318;2023-03-03T17:05:50;11.90;42.50
1337;DHT22;662;48.814;9.318;2023-03-03T17:14:30;11.70;43.00
1337;DHT22;662;48.814;9.318;2023-03-03T17:23:00;11.50;43.60
1337;DHT22;662;48.814;9.318;2023-03-03T17:33:50;11.20;44.20
1337;DHT22;662;48.814;9.318;2023-03-03T17:36:47;11.20;44.40
1337;DHT22;662;48.814;9.318;2023-03-03T17:39:43;11.10;44.40
1337;DHT22;662;48.814;9.318;2023-03-03T17:42:42;11.10;44.70
1337;DHT22;662;48.814;9.318;2023-03-03T17:45:15;11.00;44.70
1337;DHT22;662;48.814;9.318;2023-03-03T17:53:40;10.90;45.30
1337;DHT22;662;48.814;9.318;2023-03-03T18:01:29;10.70;45.50
1337;DHT22;662;48.814;9.318;2023-03-03T18:04:03;10.70;45.70
1337;DHT22;662;48.814;9.318;2023-03-03T18:36:33;10.10;46.60
1337;DHT22;662;48.814;9.318;2023-03-03T18:39:01;10.10;46.60
1337;DHT22;662;48.814;9.318;2023-03-03T18:44:35;9.80;47.60
1337;DHT22;662;48.814;9.318;2023-03-03T18:47:01;9.70;47.60
1337;DHT22;662;48.814;9.318;2023-03-03T18:52:29;9.60;47.90
1337;DHT22;662;48.814;9.318;2023-03-03T18:55:20;9.50;47.90
1337;DHT22;662;48.814;9.318;2023-03-03T18:58:03;9.40;48.10
1337;DHT22;662;48.814;9.318;2023-03-03T19:00:59;9.40;48.30
1337;DHT22;662;48.814;9.318;2023-03-03T19:03:36;9.30;48.40
1337;DHT22;662;48.814;9.318;2023-03-03T19:06:07;9.20;48.50
1337;DHT22;662;48.814;9.318;2023-03-03T19:08:53;9.20;48.60
1337;DHT22;662;48.814;9.318;2023-03-03T19:14:33;9.10;48.80
1337;DHT22;662;48.814;9.318;2023-03-03T19:22:28;8.90;49.30
1337;DHT22;662;48.814;9.318;2023-03-03T19:27:59;8.90;49.60
1337;DHT22;662;48.814;9.318;2023-03-03T19:30:35;8.80;49.80
1337;DHT22;662;48.814;9.318;2023-03-03T20:05:57;8.40;50.90
1337;DHT22;662;48.814;9.318;2023-03-03T20:08:45;8.30;50.90
1337;DHT22;662;48.814;9.318;2023-03-03T20:11:19;8.30;51.00
1337;DHT22;662;48.814;9.318;2023-03-03T20:16:21;8.30;51.20
1337;DHT22;662;48.814;9.318;2023-03-03T20:19:14;8.30;51.20
1337;DHT22;662;48.814;9.318;2023-03-03T20:27:16;8.30;51.40
1337;DHT22;662;48.814;9.318;2023-03-03T20:33:00;8.30;52.00
1337;DHT22;662;48.814;9.318;2023-03-03T20:35:35;8.20;51.50
1337;DHT22;662;48.814;9.318;2023-03-03T20:43:51;8.10;51.40
1337;DHT22;662;48.814;9.318;2023-03-03T20:46:37;8.10;51.40
1337;DHT22;662;48.814;9.318;2023-03-03T20:52:00;8.00;51.50
1337;DHT22;662;48.814;9.318;2023-03-03T20:54:32;8.00;51.40
1337;DHT22;662;48.814;9.318;2023-03-03T21:00:29;7.90;51.50
1337;DHT22;662;48.814;9.318;2023-03-03T21:03:13;7.90;51.60
1337;DHT22;662;48.814;9.318;2023-03-03T21:05:55;7.80;52.10
1337;DHT22;662;48.814;9.318;2023-03-03T21:08:42;7.80;51.60
1337;DHT22;662;48.814;9.318;2023-03-03T21:11:09;7.70;51.60
1337;DHT22;662;48.814;9.318;2023-03-03T21:13:49;7.70;51.80
1337;DHT22;662;48.814;9.318;2023-03-03T21:21:27;7.50;51.70
1337;DHT22;662;48.814;9.318;2023-03-03T21:23:54;7.50;51.80
1337;DHT22;662;48.814;9.318;2023-03-03T21:29:22;7.40;51.90
1337;DHT22;662;48.814;9.318;2023-03-03T21:31:57;7.40;52.00
1337;DHT22;662;48.814;9.318;2023-03-03T21:34:37;7.30;52.00
1337;DHT22;662;48.814;9.318;2023-03-03T21:37:06;7.30;52.60
1337;DHT22;662;48.814;9.318;2023-03-03T21:39:34;7.30;52.20
1337;DHT22;662;48.814;9.318;2023-03-03T21:42:10;7.20;52.20
1337;DHT22;662;48.814;9.318;2023-03-03T21:44:45;7.20;52.20
1337;DHT22;662;48.814;9.318;2023-03-03T21:47:18;7.20;52.30
1337;DHT22;662;48.814;9.318;2023-03-03T21:49:46;7.10;52.30
1337;DHT22;662;48.814;9.318;2023-03-03T21:52:14;7.10;52.40
1337;DHT22;662;48.814;9.318;2023-03-03T21:54:41;7.10;52.50
1337;DHT22;662;48.814;9.318;2023-03-03T21:57:07;7.10;52.50
1337;DHT22;662;48.814;9.318;2023-03-03T21:59:33;7.00;52.50
1337;DHT22;662;48.814;9.318;2023-03-03T22:01:59;7.00;52.50
1337;DHT22;662;48.814;9.318;2023-03-03T22:04:25;7.00;52.60
1337;DHT22;662;48.814;9.318;2023-03-03T22:06:50;6.90;52.50
1337;DHT22;662;48.814;9.318;2023-03-03T22:09:17;6.90;52.60
1337;DHT22;662;48.814;9.318;2023-03-03T22:11:43;6.90;52.70
1337;DHT22;662;48.814;9.318;2023-03-03T22:14:09;6.90;52.70
1337;DHT22;662;48.814;9.318;2023-03-03T22:16:35;6.80;52.70
1337;DHT22;662;48.814;9.318;2023-03-03T22:19:01;6.80;52.70
1337;DHT22;662;48.814;9.318;2023-03-03T22:21:27;6.80;52.70
1337;DHT22;662;48.814;9.318;2023-03-03T22:23:53;6.80;52.80
1337;DHT22;662;48.814;9.318;2023-03-03T22:26:18;6.70;52.70
1337;DHT22;662;48.814;9.318;2023-03-03T22:28:47;6.70;52.90
1337;DHT22;662;48.814;9.318;2023-03-03T22:31:13;6.70;52.90
1337;DHT22;662;48.814;9.318;2023-03-03T22:33:39;6.70;52.90
1337;DHT22;662;48.814;9.318;2023-03-03T22:36:05;6.60;52.90
1337;DHT22;662;48.814;9.318;2023-03-03T22:38:33;6.60;52.90
1337;DHT22;662;48.814;9.318;2023-03-03T22:40:59;6.50;52.80
1337;DHT22;662;48.814;9.318;2023-03-03T22:43:25;6.50;52.90
1337;DHT22;662;48.814;9.318;2023-03-03T22:45:51;6.50;52.90
1337;DHT22;662;48.814;9.318;2023-03-03T22:48:17;6.50;53.00
1337;DHT22;662;48.814;9.318;2023-03-03T22:50:43;6.40;53.00
1337;DHT22;662;48.814;9.318;2023-03-03T22:53:10;6.40;53.10
1337;DHT22;662;48.814;9.318;2023-03-03T22:55:36;6.30;53.10
1337;DHT22;662;48.814;9.318;2023-03-03T22:58:03;6.30;53.20
1337;DHT22;662;48.814;9.318;2023-03-03T23:00:29;6.30;53.30
1337;DHT22;662;48.814;9.318;2023-03-03T23:02:54;6.20;53.20
1337;DHT22;662;48.814;9.318;2023-03-03T23:05:20;6.20;53.30
1337;DHT22;662;48.814;9.318;2023-03-03T23:07:46;6.20;53.40
1337;DHT22;662;48.814;9.318;2023-03-03T23:10:11;6.10;53.40
1337;DHT22;662;48.814;9.318;2023-03-03T23:12:37;6.10;53.50
1337;DHT22;662;48.814;9.318;2023-03-03T23:15:03;6.00;53.40
1337;DHT22;662;48.814;9.318;2023-03-03T23:17:30;6.00;53.40
1337;DHT22;662;48.814;9.318;2023-03-03T23:19:56;6.00;53.50
1337;DHT22;662;48.814;9.318;2023-03-03T23:22:22;6.00;53.60
1337;DHT22;662;48.814;9.318;2023-03-03T23:24:47;6.00;53.60
1337;DHT22;662;48.814;9.318;2023-03-03T23:27:13;5.90;53.60
1337;DHT22;662;48.814;9.318;2023-03-03T23:29:39;5.90;53.70
1337;DHT22;662;48.814;9.318;2023-03-03T23:32:07;5.90;53.70
1337;DHT22;662;48.814;9.318;2023-03-03T23:34:33;5.90;53.80
1337;DHT22;662;48.814;9.318;2023-03-03T23:36:59;5.80;53.80
1337;DHT22;662;48.814;9.318;2023-03-03T23:39:24;5.80;53.80
1337;DHT22;662;48.814;9.318;2023-03-03T23:41:52;5.80;53.90
1337;DHT22;662;48.814;9.318;2023-03-03T23:44:17;5.80;54.00